sensor_id;sensor_type;location;lat;lon;timestamp;pressure;altitude;pressure_sealevel;temperature;humidity
48089;BME280;33867;50.314;7.802;2023-06-14T00:01:42;100099.13;;;14.31;nan
48089;BME280;33867;50.314;7.802;2023-06-14T00:05:14;100098.44;;;14.29;nan
48089;BME280;33867;50.314;7.802;2023-06-14T00:08:33;100101.50;;;14.26;nan
48089;BME280;33867;50.314;7.802;2023-06-14T00:11:53;100106.63;;;14.21;nan
48089;BME280;33867;50.314;7.802;2023-06-14T00:15:12;100106.09;;;14.17;nan
48089;BME280;33867;50.314;7.802;2023-06-14T00:18:31;100096.66;;;14.05;nan
48089;BME280;33867;50.314;7.802;2023-06-14T00:21:51;100097.19;;;14.00;nan
48089;BME280;33867;50.314;7.802;2023-06-14T00:25:11;100101.22;;;13.96;nan
48089;BME280;33867;50.314;7.802;2023-06-14T00:28:30;100101.75;;;13.92;nan
48089;BME280;33867;50.314;7.802;2023-06-14T00:31:49;100102.44;;;13.86;nan
48089;BME280;33867;50.314;7.802;2023-06-14T00:35:09;100109.91;;;13.75;nan
48089;BME280;33867;50.314;7.802;2023-06-14T00:38:28;100104.47;;;13.67;nan
48089;BME280;33867;50.314;7.802;2023-06-14T00:41:47;100104.66;;;13.66;nan
48089;BME280;33867;50.314;7.802;2023-06-14T00:45:07;100109.88;;;13.59;nan
48089;BME280;33867;50.314;7.802;2023-06-14T00:48:28;100108.19;;;13.58;nan
48089;BME280;33867;50.314;7.802;2023-06-14T00:51:47;100109.22;;;13.41;nan
48089;BME280;33867;50.314;7.802;2023-06-14T00:55:07;100107.19;;;13.43;nan
48089;BME280;33867;50.314;7.802;2023-06-14T00:58:27;100114.63;;;13.41;nan
48089;BME280;33867;50.314;7.802;2023-06-14T01:01:46;100116.47;;;13.32;nan
48089;BME280;33867;50.314;7.802;2023-06-14T01:05:08;100111.75;;;13.26;nan
48089;BME280;33867;50.314;7.802;2023-06-14T01:08:40;100115.28;;;13.27;nan
48089;BME280;33867;50.314;7.802;2023-06-14T01:12:14;100106.66;;;13.23;nan
48089;BME280;33867;50.314;7.802;2023-06-14T01:15:34;100118.31;;;13.24;nan
48089;BME280;33867;50.314;7.802;2023-06-14T01:18:55;100120.34;;;13.22;nan
48089;BME280;33867;50.314;7.802;2023-06-14T01:22:16;100122.66;;;13.16;nan
48089;BME280;33867;50.314;7.802;2023-06-14T01:25:36;100118.09;;;13.09;nan
48089;BME280;33867;50.314;7.802;2023-06-14T01:28:56;100116.56;;;13.06;nan
48089;BME280;33867;50.314;7.802;2023-06-14T01:32:18;100123.31;;;13.02;nan
48089;BME280;33867;50.314;7.802;2023-06-14T01:35:37;100129.72;;;13.01;nan
48089;BME280;33867;50.314;7.802;2023-06-14T01:38:59;100123.78;;;12.98;nan
48089;BME280;33867;50.314;7.802;2023-06-14T01:42:20;100128.69;;;12.94;nan
48089;BME280;33867;50.314;7.802;2023-06-14T01:45:40;100131.19;;;12.87;nan
48089;BME280;33867;50.314;7.802;2023-06-14T01:49:01;100137.59;;;12.86;nan
48089;BME280;33867;50.314;7.802;2023-06-14T01:52:21;100129.66;;;12.85;nan
48089;BME280;33867;50.314;7.802;2023-06-14T01:55:41;100129.16;;;12.81;nan
48089;BME280;33867;50.314;7.802;2023-06-14T01:59:02;100129.63;;;12.77;nan
48089;BME280;33867;50.314;7.802;2023-06-14T02:02:21;100128.28;;;12.73;nan
48089;BME280;33867;50.314;7.802;2023-06-14T02:05:40;100124.84;;;12.63;nan
48089;BME280;33867;50.314;7.802;2023-06-14T02:09:00;100128.22;;;12.65;nan
48089;BME280;33867;50.314;7.802;2023-06-14T02:12:21;100130.59;;;12.59;nan
48089;BME280;33867;50.314;7.802;2023-06-14T02:15:40;100124.69;;;12.56;nan
48089;BME280;33867;50.314;7.802;2023-06-14T02:19:02;100130.59;;;12.59;nan
48089;BME280;33867;50.314;7.802;2023-06-14T02:22:21;100143.72;;;12.54;nan
48089;BME280;33867;50.314;7.802;2023-06-14T02:25:41;100132.34;;;12.43;nan
48089;BME280;33867;50.314;7.802;2023-06-14T02:29:01;100134.06;;;12.44;nan
48089;BME280;33867;50.314;7.802;2023-06-14T02:32:20;100137.91;;;12.41;nan
48089;BME280;33867;50.314;7.802;2023-06-14T02:35:39;100132.84;;;12.38;nan
48089;BME280;33867;50.314;7.802;2023-06-14T02:38:59;100138.56;;;12.35;nan
48089;BME280;33867;50.314;7.802;2023-06-14T02:42:18;100133.50;;;12.32;nan
48089;BME280;33867;50.314;7.802;2023-06-14T02:45:37;100131.44;;;12.26;nan
48089;BME280;33867;50.314;7.802;2023-06-14T02:48:56;100143.56;;;12.22;nan
48089;BME280;33867;50.314;7.802;2023-06-14T02:52:15;100137.09;;;12.15;nan
48089;BME280;33867;50.314;7.802;2023-06-14T02:55:35;100144.50;;;12.13;nan
48089;BME280;33867;50.314;7.802;2023-06-14T02:58:59;100144.00;;;12.09;nan
48089;BME280;33867;50.314;7.802;2023-06-14T03:02:19;100141.59;;;12.06;nan
48089;BME280;33867;50.314;7.802;2023-06-14T03:05:40;100142.91;;;12.02;nan
48089;BME280;33867;50.314;7.802;2023-06-14T03:09:05;100146.78;;;11.99;nan
48089;BME280;33867;50.314;7.802;2023-06-14T03:12:27;100145.94;;;11.99;nan
48089;BME280;33867;50.314;7.802;2023-06-14T03:15:47;100149.81;;;11.96;nan
48089;BME280;33867;50.314;7.802;2023-06-14T03:19:10;100156.88;;;11.97;nan
48089;BME280;33867;50.314;7.802;2023-06-14T03:22:30;100160.72;;;11.95;nan
48089;BME280;33867;50.314;7.802;2023-06-14T03:25:49;100162.06;;;11.91;nan
48089;BME280;33867;50.314;7.802;2023-06-14T03:29:08;100161.22;;;11.90;nan
48089;BME280;33867;50.314;7.802;2023-06-14T03:32:27;100179.09;;;11.91;nan
48089;BME280;33867;50.314;7.802;2023-06-14T03:35:47;100175.88;;;11.88;nan
48089;BME280;33867;50.314;7.802;2023-06-14T03:39:07;100174.19;;;11.87;nan
48089;BME280;33867;50.314;7.802;2023-06-14T03:42:27;100173.50;;;11.85;nan
48089;BME280;33867;50.314;7.802;2023-06-14T03:45:47;100187.66;;;11.87;nan
48089;BME280;33867;50.314;7.802;2023-06-14T03:49:07;100193.59;;;11.90;nan
48089;BME280;33867;50.314;7.802;2023-06-14T03:52:27;100190.56;;;11.93;nan
48089;BME280;33867;50.314;7.802;2023-06-14T03:55:46;100196.34;;;11.98;nan
48089;BME280;33867;50.314;7.802;2023-06-14T03:59:08;100200.06;;;11.97;nan
48089;BME280;33867;50.314;7.802;2023-06-14T04:02:27;100203.78;;;11.96;nan
48089;BME280;33867;50.314;7.802;2023-06-14T04:05:47;100200.75;;;11.99;nan
48089;BME280;33867;50.314;7.802;2023-06-14T04:09:08;100209.03;;;12.06;nan
48089;BME280;33867;50.314;7.802;2023-06-14T04:12:28;100205.13;;;12.00;nan
48089;BME280;33867;50.314;7.802;2023-06-14T04:15:47;100212.38;;;12.00;nan
48089;BME280;33867;50.314;7.802;2023-06-14T04:19:12;100212.47;;;12.08;nan
48089;BME280;33867;50.314;7.802;2023-06-14T04:22:31;100221.41;;;12.09;nan
48089;BME280;33867;50.314;7.802;2023-06-14T04:25:52;100220.84;;;12.05;nan
48089;BME280;33867;50.314;7.802;2023-06-14T04:29:11;100221.25;;;12.10;nan
48089;BME280;33867;50.314;7.802;2023-06-14T04:32:35;100228.84;;;12.15;nan
48089;BME280;33867;50.314;7.802;2023-06-14T04:35:58;100231.94;;;12.20;nan
48089;BME280;33867;50.314;7.802;2023-06-14T04:39:20;100227.53;;;12.19;nan
48089;BME280;33867;50.314;7.802;2023-06-14T04:42:41;100228.09;;;12.22;nan
48089;BME280;33867;50.314;7.802;2023-06-14T04:46:07;100222.19;;;12.27;nan
48089;BME280;33867;50.314;7.802;2023-06-14T04:49:29;100233.94;;;12.18;nan
48089;BME280;33867;50.314;7.802;2023-06-14T04:52:52;100227.03;;;11.97;nan
48089;BME280;33867;50.314;7.802;2023-06-14T04:56:11;100231.06;;;12.19;nan
48089;BME280;33867;50.314;7.802;2023-06-14T04:59:31;100236.38;;;12.29;nan
48089;BME280;33867;50.314;7.802;2023-06-14T05:02:52;100235.38;;;12.30;nan
48089;BME280;33867;50.314;7.802;2023-06-14T05:06:12;100229.03;;;12.39;nan
48089;BME280;33867;50.314;7.802;2023-06-14T05:09:30;100237.19;;;12.21;nan
48089;BME280;33867;50.314;7.802;2023-06-14T05:12:50;100232.59;;;12.40;nan
48089;BME280;33867;50.314;7.802;2023-06-14T05:16:13;100227.31;;;12.56;nan
48089;BME280;33867;50.314;7.802;2023-06-14T05:19:34;100240.53;;;12.67;nan
48089;BME280;33867;50.314;7.802;2023-06-14T05:22:54;100234.38;;;12.83;nan
48089;BME280;33867;50.314;7.802;2023-06-14T05:26:13;100249.63;;;12.92;nan
48089;BME280;33867;50.314;7.802;2023-06-14T05:29:32;100242.75;;;13.06;nan
48089;BME280;33867;50.314;7.802;2023-06-14T05:32:51;100242.47;;;13.17;nan
48089;BME280;33867;50.314;7.802;2023-06-14T05:36:11;100231.66;;;13.17;nan
48089;BME280;33867;50.314;7.802;2023-06-14T05:39:31;100241.69;;;13.33;nan
48089;BME280;33867;50.314;7.802;2023-06-14T05:42:49;100238.22;;;13.73;nan
48089;BME280;33867;50.314;7.802;2023-06-14T05:46:09;100235.09;;;17.70;nan
48089;BME280;33867;50.314;7.802;2023-06-14T05:49:28;100228.13;;;21.98;nan
48089;BME280;33867;50.314;7.802;2023-06-14T05:52:47;100228.25;;;24.48;nan
48089;BME280;33867;50.314;7.802;2023-06-14T05:56:06;100230.97;;;25.82;nan
48089;BME280;33867;50.314;7.802;2023-06-14T05:59:25;100234.09;;;26.47;nan
48089;BME280;33867;50.314;7.802;2023-06-14T06:02:45;100236.16;;;27.51;nan
48089;BME280;33867;50.314;7.802;2023-06-14T06:06:10;100234.44;;;29.27;nan
48089;BME280;33867;50.314;7.802;2023-06-14T06:09:29;100235.22;;;29.90;nan
48089;BME280;33867;50.314;7.802;2023-06-14T06:12:49;100230.31;;;30.53;nan
48089;BME280;33867;50.314;7.802;2023-06-14T06:16:11;100231.94;;;31.85;nan
48089;BME280;33867;50.314;7.802;2023-06-14T06:19:30;100233.88;;;31.00;nan
48089;BME280;33867;50.314;7.802;2023-06-14T06:22:50;100227.56;;;32.13;nan
48089;BME280;33867;50.314;7.802;2023-06-14T06:26:09;62132.72;;;-144.99;100.00
48089;BME280;33867;50.314;7.802;2023-06-14T06:29:28;62132.72;;;-144.99;100.00
48089;BME280;33867;50.314;7.802;2023-06-14T06:32:47;100227.53;;;32.18;nan
48089;BME280;33867;50.314;7.802;2023-06-14T06:36:07;100236.06;;;32.66;nan
48089;BME280;33867;50.314;7.802;2023-06-14T06:39:26;100234.16;;;32.96;nan
48089;BME280;33867;50.314;7.802;2023-06-14T06:42:45;100236.97;;;32.91;nan
48089;BME280;33867;50.314;7.802;2023-06-14T06:46:06;100246.06;;;32.38;nan
48089;BME280;33867;50.314;7.802;2023-06-14T06:49:25;100237.97;;;33.53;nan
48089;BME280;33867;50.314;7.802;2023-06-14T06:52:44;100240.88;;;32.90;nan
48089;BME280;33867;50.314;7.802;2023-06-14T06:56:04;100246.97;;;30.28;nan
48089;BME280;33867;50.314;7.802;2023-06-14T06:59:24;100246.97;;;30.28;nan
48089;BME280;33867;50.314;7.802;2023-06-14T07:02:45;100242.53;;;30.22;nan
48089;BME280;33867;50.314;7.802;2023-06-14T07:06:05;100250.19;;;29.79;nan
48089;BME280;33867;50.314;7.802;2023-06-14T07:09:24;100246.69;;;29.47;nan
48089;BME280;33867;50.314;7.802;2023-06-14T07:12:43;100238.88;;;30.01;nan
48089;BME280;33867;50.314;7.802;2023-06-14T07:16:07;100251.13;;;30.10;nan
48089;BME280;33867;50.314;7.802;2023-06-14T07:19:26;100248.09;;;29.44;nan
48089;BME280;33867;50.314;7.802;2023-06-14T07:22:45;100246.53;;;29.68;nan
48089;BME280;33867;50.314;7.802;2023-06-14T07:26:04;100256.72;;;30.76;nan
48089;BME280;33867;50.314;7.802;2023-06-14T07:29:23;100257.25;;;31.04;nan
48089;BME280;33867;50.314;7.802;2023-06-14T07:32:42;100250.88;;;30.88;nan
48089;BME280;33867;50.314;7.802;2023-06-14T07:36:04;100252.56;;;30.84;nan
48089;BME280;33867;50.314;7.802;2023-06-14T07:39:26;100258.06;;;31.14;nan
48089;BME280;33867;50.314;7.802;2023-06-14T07:42:46;100259.69;;;31.41;nan
48089;BME280;33867;50.314;7.802;2023-06-14T07:46:05;100256.06;;;31.40;nan
48089;BME280;33867;50.314;7.802;2023-06-14T07:49:24;100262.00;;;30.88;nan
48089;BME280;33867;50.314;7.802;2023-06-14T07:52:44;100261.63;;;30.03;nan
48089;BME280;33867;50.314;7.802;2023-06-14T07:56:04;100257.47;;;31.38;nan
48089;BME280;33867;50.314;7.802;2023-06-14T07:59:23;100265.53;;;31.39;nan
48089;BME280;33867;50.314;7.802;2023-06-14T08:02:42;100256.75;;;31.77;nan
48089;BME280;33867;50.314;7.802;2023-06-14T08:06:02;100262.81;;;30.99;nan
48089;BME280;33867;50.314;7.802;2023-06-14T08:09:21;100263.66;;;30.53;nan
48089;BME280;33867;50.314;7.802;2023-06-14T08:12:43;100264.00;;;31.67;nan
48089;BME280;33867;50.314;7.802;2023-06-14T08:16:02;100257.50;;;31.28;nan
48089;BME280;33867;50.314;7.802;2023-06-14T08:19:23;100255.53;;;31.93;nan
48089;BME280;33867;50.314;7.802;2023-06-14T08:22:43;100264.31;;;31.61;nan
48089;BME280;33867;50.314;7.802;2023-06-14T08:26:02;100265.22;;;32.50;nan
48089;BME280;33867;50.314;7.802;2023-06-14T08:29:22;100262.56;;;32.35;nan
48089;BME280;33867;50.314;7.802;2023-06-14T08:32:44;100260.13;;;33.15;nan
48089;BME280;33867;50.314;7.802;2023-06-14T08:36:04;100260.56;;;31.21;nan
48089;BME280;33867;50.314;7.802;2023-06-14T08:39:23;100265.75;;;29.90;nan
48089;BME280;33867;50.314;7.802;2023-06-14T08:42:42;100262.28;;;30.46;nan
48089;BME280;33867;50.314;7.802;2023-06-14T08:46:03;100258.06;;;30.08;nan
48089;BME280;33867;50.314;7.802;2023-06-14T08:49:24;100264.34;;;29.78;nan
48089;BME280;33867;50.314;7.802;2023-06-14T08:52:45;100248.06;;;30.07;nan
48089;BME280;33867;50.314;7.802;2023-06-14T08:56:08;100244.59;;;28.74;nan
48089;BME280;33867;50.314;7.802;2023-06-14T08:59:32;100269.63;;;29.74;nan
48089;BME280;33867;50.314;7.802;2023-06-14T09:02:58;100253.75;;;29.69;nan
48089;BME280;33867;50.314;7.802;2023-06-14T09:06:17;100259.59;;;29.63;nan
48089;BME280;33867;50.314;7.802;2023-06-14T09:09:39;100263.97;;;29.54;nan
48089;BME280;33867;50.314;7.802;2023-06-14T09:13:01;100262.41;;;29.73;nan
48089;BME280;33867;50.314;7.802;2023-06-14T09:16:20;100261.19;;;28.69;nan
48089;BME280;33867;50.314;7.802;2023-06-14T09:19:39;100262.44;;;28.24;nan
48089;BME280;33867;50.314;7.802;2023-06-14T09:23:01;100271.66;;;29.41;nan
48089;BME280;33867;50.314;7.802;2023-06-14T09:26:20;100269.81;;;29.57;nan
48089;BME280;33867;50.314;7.802;2023-06-14T09:29:39;100276.41;;;28.35;nan
48089;BME280;33867;50.314;7.802;2023-06-14T09:32:58;100290.56;;;28.65;nan
48089;BME280;33867;50.314;7.802;2023-06-14T09:36:21;100281.97;;;28.35;nan
48089;BME280;33867;50.314;7.802;2023-06-14T09:39:50;100295.31;;;27.94;nan
48089;BME280;33867;50.314;7.802;2023-06-14T09:43:09;100287.25;;;27.65;nan
48089;BME280;33867;50.314;7.802;2023-06-14T09:46:29;100284.63;;;28.89;nan
48089;BME280;33867;50.314;7.802;2023-06-14T09:49:50;100276.31;;;29.88;nan
48089;BME280;33867;50.314;7.802;2023-06-14T09:53:11;100285.16;;;27.73;nan
48089;BME280;33867;50.314;7.802;2023-06-14T09:56:35;100294.88;;;28.02;nan
48089;BME280;33867;50.314;7.802;2023-06-14T09:59:57;100296.69;;;30.24;nan
48089;BME280;33867;50.314;7.802;2023-06-14T10:03:25;100310.38;;;30.77;nan
48089;BME280;33867;50.314;7.802;2023-06-14T10:06:46;100302.00;;;30.41;nan
48089;BME280;33867;50.314;7.802;2023-06-14T10:10:07;100295.38;;;30.73;nan
48089;BME280;33867;50.314;7.802;2023-06-14T10:13:28;100298.66;;;29.51;nan
48089;BME280;33867;50.314;7.802;2023-06-14T10:16:56;100295.84;;;30.19;nan
48089;BME280;33867;50.314;7.802;2023-06-14T10:20:30;100286.56;;;31.66;nan
48089;BME280;33867;50.314;7.802;2023-06-14T10:23:51;100285.88;;;30.38;nan
48089;BME280;33867;50.314;7.802;2023-06-14T10:27:14;100296.72;;;29.57;nan
48089;BME280;33867;50.314;7.802;2023-06-14T10:30:33;100294.25;;;30.64;nan
48089;BME280;33867;50.314;7.802;2023-06-14T10:37:13;100297.16;;;30.01;nan
48089;BME280;33867;50.314;7.802;2023-06-14T10:40:33;100283.47;;;31.72;nan
48089;BME280;33867;50.314;7.802;2023-06-14T10:44:10;100295.84;;;30.09;nan
48089;BME280;33867;50.314;7.802;2023-06-14T10:47:33;100292.00;;;31.27;nan
48089;BME280;33867;50.314;7.802;2023-06-14T10:50:59;100293.94;;;30.50;nan
48089;BME280;33867;50.314;7.802;2023-06-14T10:54:22;100283.06;;;30.13;nan
48089;BME280;33867;50.314;7.802;2023-06-14T11:01:11;100317.03;;;31.17;nan
48089;BME280;33867;50.314;7.802;2023-06-14T11:04:47;100289.22;;;30.50;nan
48089;BME280;33867;50.314;7.802;2023-06-14T11:11:33;100288.59;;;31.45;nan
48089;BME280;33867;50.314;7.802;2023-06-14T11:14:54;100293.94;;;31.31;nan
48089;BME280;33867;50.314;7.802;2023-06-14T11:18:13;100298.63;;;30.29;nan
48089;BME280;33867;50.314;7.802;2023-06-14T11:21:33;100299.81;;;30.74;nan
48089;BME280;33867;50.314;7.802;2023-06-14T11:24:52;100307.00;;;30.34;nan
48089;BME280;33867;50.314;7.802;2023-06-14T11:28:11;100292.41;;;29.86;nan
48089;BME280;33867;50.314;7.802;2023-06-14T11:31:30;100287.28;;;30.36;nan
48089;BME280;33867;50.314;7.802;2023-06-14T11:34:49;100297.88;;;28.49;nan
48089;BME280;33867;50.314;7.802;2023-06-14T11:38:10;100313.53;;;28.98;nan
48089;BME280;33867;50.314;7.802;2023-06-14T11:41:41;100308.81;;;29.40;nan
48089;BME280;33867;50.314;7.802;2023-06-14T11:45:01;100298.66;;;30.39;nan
48089;BME280;33867;50.314;7.802;2023-06-14T11:48:21;100295.00;;;31.35;nan
48089;BME280;33867;50.314;7.802;2023-06-14T11:51:45;100294.66;;;31.57;nan
48089;BME280;33867;50.314;7.802;2023-06-14T11:55:05;100290.88;;;30.36;nan
48089;BME280;33867;50.314;7.802;2023-06-14T11:58:25;100289.91;;;29.85;nan
48089;BME280;33867;50.314;7.802;2023-06-14T12:01:47;100280.81;;;31.37;nan
48089;BME280;33867;50.314;7.802;2023-06-14T12:05:07;100303.09;;;30.35;nan
48089;BME280;33867;50.314;7.802;2023-06-14T12:08:33;100286.44;;;30.45;nan
48089;BME280;33867;50.314;7.802;2023-06-14T12:12:01;100281.13;;;32.00;nan
48089;BME280;33867;50.314;7.802;2023-06-14T12:15:20;100279.78;;;31.02;nan
48089;BME280;33867;50.314;7.802;2023-06-14T12:18:40;100271.47;;;29.58;nan
48089;BME280;33867;50.314;7.802;2023-06-14T12:22:05;100274.22;;;30.51;nan
48089;BME280;33867;50.314;7.802;2023-06-14T12:25:31;100270.56;;;28.63;nan
48089;BME280;33867;50.314;7.802;2023-06-14T12:28:51;100282.03;;;27.91;nan
48089;BME280;33867;50.314;7.802;2023-06-14T12:32:11;100291.78;;;27.72;nan
48089;BME280;33867;50.314;7.802;2023-06-14T12:35:30;100293.94;;;27.70;nan
48089;BME280;33867;50.314;7.802;2023-06-14T12:38:49;100283.41;;;28.74;nan
48089;BME280;33867;50.314;7.802;2023-06-14T12:42:12;100272.03;;;28.17;nan
48089;BME280;33867;50.314;7.802;2023-06-14T12:45:33;100271.72;;;28.67;nan
48089;BME280;33867;50.314;7.802;2023-06-14T12:48:52;100273.16;;;27.67;nan
48089;BME280;33867;50.314;7.802;2023-06-14T12:52:11;100284.22;;;27.06;nan
48089;BME280;33867;50.314;7.802;2023-06-14T12:55:30;100296.25;;;28.00;nan
48089;BME280;33867;50.314;7.802;2023-06-14T12:58:49;100278.41;;;29.56;nan
48089;BME280;33867;50.314;7.802;2023-06-14T13:02:19;100283.59;;;28.31;nan
48089;BME280;33867;50.314;7.802;2023-06-14T13:05:41;100271.31;;;29.28;nan
48089;BME280;33867;50.314;7.802;2023-06-14T13:09:01;100286.03;;;28.05;nan
48089;BME280;33867;50.314;7.802;2023-06-14T13:12:22;100274.31;;;28.47;nan
48089;BME280;33867;50.314;7.802;2023-06-14T13:15:41;100277.81;;;28.37;nan
48089;BME280;33867;50.314;7.802;2023-06-14T13:19:00;100277.28;;;28.13;nan
48089;BME280;33867;50.314;7.802;2023-06-14T13:22:19;100274.59;;;29.20;nan
48089;BME280;33867;50.314;7.802;2023-06-14T13:25:39;100270.75;;;29.88;nan
48089;BME280;33867;50.314;7.802;2023-06-14T13:28:59;100270.69;;;29.63;nan
48089;BME280;33867;50.314;7.802;2023-06-14T13:32:17;100276.03;;;29.95;nan
48089;BME280;33867;50.314;7.802;2023-06-14T13:35:37;100282.97;;;29.35;nan
48089;BME280;33867;50.314;7.802;2023-06-14T13:38:56;100284.06;;;28.01;nan
48089;BME280;33867;50.314;7.802;2023-06-14T13:42:14;100279.84;;;28.47;nan
48089;BME280;33867;50.314;7.802;2023-06-14T13:45:34;100292.47;;;27.84;nan
48089;BME280;33867;50.314;7.802;2023-06-14T13:48:54;100286.78;;;28.49;nan
48089;BME280;33867;50.314;7.802;2023-06-14T13:52:13;100274.69;;;29.97;nan
48089;BME280;33867;50.314;7.802;2023-06-14T13:55:32;100274.50;;;30.60;nan
48089;BME280;33867;50.314;7.802;2023-06-14T13:58:52;100277.09;;;29.21;nan
48089;BME280;33867;50.314;7.802;2023-06-14T14:02:12;100267.59;;;29.59;nan
48089;BME280;33867;50.314;7.802;2023-06-14T14:05:31;100275.72;;;29.81;nan
48089;BME280;33867;50.314;7.802;2023-06-14T14:08:50;100267.84;;;30.76;nan
48089;BME280;33867;50.314;7.802;2023-06-14T14:12:09;100270.06;;;27.85;nan
48089;BME280;33867;50.314;7.802;2023-06-14T14:15:29;100269.66;;;29.32;nan
48089;BME280;33867;50.314;7.802;2023-06-14T14:18:48;100259.41;;;29.32;nan
48089;BME280;33867;50.314;7.802;2023-06-14T14:22:07;100259.09;;;29.91;nan
48089;BME280;33867;50.314;7.802;2023-06-14T14:25:27;100265.31;;;30.90;nan
48089;BME280;33867;50.314;7.802;2023-06-14T14:28:46;100241.69;;;27.95;nan
48089;BME280;33867;50.314;7.802;2023-06-14T14:32:05;100277.31;;;27.26;nan
48089;BME280;33867;50.314;7.802;2023-06-14T14:35:24;100264.31;;;26.26;nan
48089;BME280;33867;50.314;7.802;2023-06-14T14:38:48;100276.66;;;26.85;nan
48089;BME280;33867;50.314;7.802;2023-06-14T14:42:07;100261.84;;;28.81;nan
48089;BME280;33867;50.314;7.802;2023-06-14T14:45:26;100256.56;;;28.80;nan
48089;BME280;33867;50.314;7.802;2023-06-14T14:48:46;100269.78;;;28.68;nan
48089;BME280;33867;50.314;7.802;2023-06-14T14:52:05;100265.66;;;27.46;nan
48089;BME280;33867;50.314;7.802;2023-06-14T14:55:24;100263.72;;;27.46;nan
48089;BME280;33867;50.314;7.802;2023-06-14T14:58:44;100279.88;;;26.60;nan
48089;BME280;33867;50.314;7.802;2023-06-14T15:02:03;100261.66;;;26.98;nan
48089;BME280;33867;50.314;7.802;2023-06-14T15:05:22;100269.88;;;27.48;nan
48089;BME280;33867;50.314;7.802;2023-06-14T15:08:41;100261.38;;;28.58;nan
48089;BME280;33867;50.314;7.802;2023-06-14T15:12:00;100262.94;;;29.18;nan
48089;BME280;33867;50.314;7.802;2023-06-14T15:15:19;100268.19;;;27.91;nan
48089;BME280;33867;50.314;7.802;2023-06-14T15:18:38;100275.31;;;25.80;nan
48089;BME280;33867;50.314;7.802;2023-06-14T15:21:57;100280.47;;;24.90;nan
48089;BME280;33867;50.314;7.802;2023-06-14T15:25:18;100285.50;;;24.93;nan
48089;BME280;33867;50.314;7.802;2023-06-14T15:28:38;100283.63;;;26.09;nan
48089;BME280;33867;50.314;7.802;2023-06-14T15:31:56;100273.16;;;27.06;nan
48089;BME280;33867;50.314;7.802;2023-06-14T15:35:17;100273.31;;;26.83;nan
48089;BME280;33867;50.314;7.802;2023-06-14T15:38:37;100276.66;;;26.85;nan
48089;BME280;33867;50.314;7.802;2023-06-14T15:41:56;100283.50;;;26.04;nan
48089;BME280;33867;50.314;7.802;2023-06-14T15:45:15;100283.31;;;25.53;nan
48089;BME280;33867;50.314;7.802;2023-06-14T15:48:34;100275.22;;;26.04;nan
48089;BME280;33867;50.314;7.802;2023-06-14T15:51:53;100269.25;;;26.69;nan
48089;BME280;33867;50.314;7.802;2023-06-14T15:55:12;100267.25;;;27.20;nan
48089;BME280;33867;50.314;7.802;2023-06-14T15:58:32;100261.72;;;27.20;nan
48089;BME280;33867;50.314;7.802;2023-06-14T16:01:50;100271.84;;;26.59;nan
48089;BME280;33867;50.314;7.802;2023-06-14T16:05:11;100261.72;;;26.64;nan
48089;BME280;33867;50.314;7.802;2023-06-14T16:08:30;100258.09;;;26.80;nan
48089;BME280;33867;50.314;7.802;2023-06-14T16:11:49;100249.03;;;26.85;nan
48089;BME280;33867;50.314;7.802;2023-06-14T16:15:09;100238.16;;;27.12;nan
48089;BME280;33867;50.314;7.802;2023-06-14T16:18:28;100246.00;;;26.87;nan
48089;BME280;33867;50.314;7.802;2023-06-14T16:21:47;100258.50;;;25.93;nan
48089;BME280;33867;50.314;7.802;2023-06-14T16:25:07;100259.97;;;24.86;nan
48089;BME280;33867;50.314;7.802;2023-06-14T16:28:25;100254.25;;;24.75;nan
48089;BME280;33867;50.314;7.802;2023-06-14T16:31:45;100250.22;;;25.93;nan
48089;BME280;33867;50.314;7.802;2023-06-14T16:35:04;100249.81;;;26.02;nan
48089;BME280;33867;50.314;7.802;2023-06-14T16:38:24;100248.34;;;26.28;nan
48089;BME280;33867;50.314;7.802;2023-06-14T16:41:43;100254.66;;;25.94;nan
48089;BME280;33867;50.314;7.802;2023-06-14T16:45:02;100251.97;;;24.96;nan
48089;BME280;33867;50.314;7.802;2023-06-14T16:48:21;100251.72;;;25.21;nan
48089;BME280;33867;50.314;7.802;2023-06-14T16:51:40;100269.47;;;24.66;nan
48089;BME280;33867;50.314;7.802;2023-06-14T16:54:59;100260.56;;;24.41;nan
48089;BME280;33867;50.314;7.802;2023-06-14T16:58:19;100273.56;;;23.55;nan
48089;BME280;33867;50.314;7.802;2023-06-14T17:01:38;100275.38;;;23.68;nan
48089;BME280;33867;50.314;7.802;2023-06-14T17:04:57;100279.75;;;23.51;nan
48089;BME280;33867;50.314;7.802;2023-06-14T17:08:16;100267.53;;;23.83;nan
48089;BME280;33867;50.314;7.802;2023-06-14T17:11:35;100266.25;;;24.28;nan
48089;BME280;33867;50.314;7.802;2023-06-14T17:14:54;100276.41;;;24.15;nan
48089;BME280;33867;50.314;7.802;2023-06-14T17:18:14;100281.31;;;24.25;nan
48089;BME280;33867;50.314;7.802;2023-06-14T17:21:33;100275.84;;;24.37;nan
48089;BME280;33867;50.314;7.802;2023-06-14T17:24:52;100282.09;;;24.44;nan
48089;BME280;33867;50.314;7.802;2023-06-14T17:28:12;100276.38;;;24.57;nan
48089;BME280;33867;50.314;7.802;2023-06-14T17:31:31;100277.38;;;24.63;nan
48089;BME280;33867;50.314;7.802;2023-06-14T17:34:50;100282.88;;;24.63;nan
48089;BME280;33867;50.314;7.802;2023-06-14T17:38:09;100283.06;;;24.61;nan
48089;BME280;33867;50.314;7.802;2023-06-14T17:41:29;100291.72;;;24.65;nan
48089;BME280;33867;50.314;7.802;2023-06-14T17:44:49;100299.94;;;24.41;nan
48089;BME280;33867;50.314;7.802;2023-06-14T17:48:10;100288.84;;;24.18;nan
48089;BME280;33867;50.314;7.802;2023-06-14T17:51:28;100291.56;;;23.88;nan
48089;BME280;33867;50.314;7.802;2023-06-14T17:54:48;100293.09;;;24.14;nan
48089;BME280;33867;50.314;7.802;2023-06-14T17:58:07;100298.53;;;24.20;nan
48089;BME280;33867;50.314;7.802;2023-06-14T18:01:26;100303.38;;;24.07;nan
48089;BME280;33867;50.314;7.802;2023-06-14T18:04:45;100308.63;;;23.78;nan